KAWM/AWM METAR and TAF weather

Enter ICAO airport designator
Station Type Date Time Source
KAWM METAR 2021/07/28 02:53 UTC NOAA

KAWM 280253Z AUTO 00000KT 10SM CLR 27/24 A2999 RMK AO2 SLP151 T02670244 51015


Station Type Date Time Source
KAWM Decoded METAR 2021/07/28 02:53 UTC NOAA

WEST MEMPHIS MUNICIPAL AIRPORT, AR, United States (KAWM) 35-08N 090-14W
Jul 27, 2021 - 10:53 PM EDT / 2021.07.28 0253 UTC
Wind: Calm:0
Visibility: 10 mile(s):0
Sky conditions: clear
Temperature: 80.1 F (26.7 C)
Dew Point: 75.9 F (24.4 C)
Relative Humidity: 87%
Pressure (altimeter): 29.99 in. Hg (1015 hPa)
Pressure tendency: 0.04 inches (1.5 hPa) higher than three hours ago
ob: KAWM 280253Z AUTO 00000KT 10SM CLR 27/24 A2999 RMK AO2 SLP151 T02670244 51015
cycle: 3

Station Type Date Time Source
KAWM TAF UTC NOAA

Error!

Example: see airport list